Time;durP1;ratioP1;P1;durP2;ratioP2;P2;SDS_P1;SDS_P2;PMS_P1;PMS_P2;Temp;Humidity;BMP_temperature;BMP_pressure;BME280_temperature;BME280_humidity;BME280_pressure;Samples;Min_cycle;Max_cycle;Signal;HPM_P1;HPM_P2
2021/06/29 00:02:30;;;;;;;14.20;10.60;;;;;;;17.60;63.92;100163.51;1681840;105;28729;-65
2021/06/29 00:19:11;;;;;;;12.80;10.82;;;;;;;17.40;64.21;100152.07;1738529;98;27677;-58
2021/06/29 00:30:38;;;;;;;13.43;10.80;;;;;;;17.28;64.55;100152.08;1741471;102;32986;-59
2021/06/29 00:33:39;;;;;;;14.87;12.35;;;;;;;17.21;64.73;100137.81;1769250;98;29644;-58
2021/06/29 00:36:41;;;;;;;14.93;11.68;;;;;;;17.21;64.73;100137.81;1836439;97;27870;-59
2021/06/29 00:39:43;;;;;;;13.58;11.88;;;;;;;17.19;64.73;100133.01;1836369;97;28570;-58
2021/06/29 00:42:45;;;;;;;15.28;11.53;;;;;;;17.18;64.49;100128.58;1872615;93;31266;-59
2021/06/29 00:45:47;;;;;;;15.60;10.58;;;;;;;17.15;65.00;100133.72;1909198;93;32951;-58
2021/06/29 00:48:50;;;;;;;16.30;11.33;;;;;;;17.11;65.07;100125.50;1909127;93;30128;-59
2021/06/29 00:51:52;;;;;;;13.43;10.80;;;;;;;17.03;64.90;100123.88;1909794;93;27621;-58
2021/06/29 00:54:54;;;;;;;15.18;12.25;;;;;;;16.81;65.01;100080.44;1897984;93;28634;-59
2021/06/29 00:57:56;;;;;;;13.62;10.80;;;;;;;16.99;65.07;100116.52;1904916;89;31119;-59
2021/06/29 01:00:58;;;;;;;15.78;10.40;;;;;;;16.98;65.20;100116.98;1991759;89;33910;-59
2021/06/29 01:04:00;;;;;;;12.25;8.90;;;;;;;16.98;65.28;100121.55;1991774;89;30394;-58
2021/06/29 01:07:05;;;;;;;13.70;11.43;;;;;;;16.98;65.45;100121.05;1993181;87;27587;-59
2021/06/29 01:10:09;;;;;;;14.50;10.70;;;;;;;16.99;65.41;100113.80;1989224;87;29400;-59
2021/06/29 01:13:11;;;;;;;13.28;11.03;;;;;;;17.01;65.51;100105.08;1986202;89;31120;-58
2021/06/29 01:16:15;;;;;;;13.60;11.73;;;;;;;17.01;65.47;100104.57;1986138;88;33827;-58
2021/06/29 01:19:22;;;;;;;14.17;11.33;;;;;;;17.04;65.42;100108.02;2048938;86;29676;-59
2021/06/29 01:22:28;;;;;;;12.78;10.53;;;;;;;17.04;65.40;100111.60;2050622;86;27577;-66
2021/06/29 01:25:32;;;;;;;15.05;10.95;;;;;;;17.03;65.47;100108.52;2026551;86;29596;-59
2021/06/29 01:31:43;;;;;;;13.93;11.05;;;;;;;17.00;65.37;100104.70;1943282;90;33060;-57
2021/06/29 01:34:46;;;;;;;12.78;10.45;;;;;;;16.97;65.29;100101.73;1967653;90;30005;-57
2021/06/29 01:37:50;;;;;;;19.82;11.15;;;;;;;16.93;65.41;100090.77;1968006;90;27634;-57
2021/06/29 01:40:52;;;;;;;14.43;10.80;;;;;;;16.88;65.47;100080.80;1966870;90;28723;-57
2021/06/29 01:44:12;;;;;;;10.40;9.33;;;;;;;16.85;65.49;100085.98;1930381;92;32151;-58
2021/06/29 01:47:23;;;;;;;14.43;10.72;;;;;;;16.84;65.62;100086.95;1930359;92;33705;-58
2021/06/29 01:50:18;;;;;;;13.43;10.80;;;;;;;16.83;65.79;100087.94;1930444;92;29742;-58
2021/06/29 01:53:20;;;;;;;16.87;11.73;;;;;;;16.81;65.67;100078.20;1930469;92;27689;-58
2021/06/29 01:56:28;;;;;;;12.40;11.03;;;;;;;16.82;65.73;100087.56;1932560;90;28842;-58
2021/06/29 01:59:28;;;;;;;14.25;11.05;;;;;;;16.81;65.75;100079.08;1930305;92;30567;-58
2021/06/29 02:02:30;;;;;;;12.58;10.50;;;;;;;16.81;65.77;100083.61;1930687;92;32783;-58
2021/06/29 02:05:32;;;;;;;13.85;11.30;;;;;;;16.80;65.87;100081.89;1930413;92;30258;-58
2021/06/29 02:08:34;;;;;;;14.73;11.08;;;;;;;16.77;65.74;100081.65;1974019;88;27522;-58
2021/06/29 02:11:38;;;;;;;14.45;11.70;;;;;;;16.73;65.87;100082.02;2016656;88;28621;-57
2021/06/29 02:14:40;;;;;;;13.68;11.18;;;;;;;16.69;65.86;100084.12;2016623;88;31824;-57
2021/06/29 02:17:42;;;;;;;14.73;11.35;;;;;;;16.65;65.94;100083.98;2015580;88;32902;-57
2021/06/29 02:20:44;;;;;;;15.38;11.08;;;;;;;16.63;65.99;100085.94;2048625;86;29745;-57
2021/06/29 02:23:46;;;;;;;19.12;10.55;;;;;;;16.62;65.92;100089.62;2028482;87;27745;-59
2021/06/29 02:26:47;;;;;;;14.30;10.63;;;;;;;16.60;66.09;100085.70;2046483;86;28968;-59
2021/06/29 02:29:49;;;;;;;13.08;11.18;;;;;;;16.59;66.22;100078.57;2027979;87;31310;-58
2021/06/29 02:32:51;;;;;;;15.78;11.70;;;;;;;16.58;66.22;100090.84;2048870;86;33033;-58
2021/06/29 02:35:54;;;;;;;13.98;11.88;;;;;;;16.55;66.31;100087.39;2028222;87;29612;-57
2021/06/29 02:38:56;;;;;;;13.60;12.18;;;;;;;16.53;66.29;100085.33;2048979;86;27507;-58
2021/06/29 02:41:58;;;;;;;15.28;10.98;;;;;;;16.51;66.31;100088.64;2027178;87;28602;-58
2021/06/29 02:45:07;;;;;;;12.28;10.98;;;;;;;16.47;66.35;100088.50;2028291;87;32005;-57
2021/06/29 02:48:10;;;;;;;11.50;10.30;;;;;;;16.44;66.54;100085.18;2028265;87;33163;-58
2021/06/29 02:51:13;;;;;;;12.80;10.65;;;;;;;16.43;66.49;100078.89;2030026;86;29899;-58
2021/06/29 02:54:14;;;;;;;16.65;11.25;;;;;;;16.42;66.48;100077.17;1986990;89;27557;-57
2021/06/29 02:57:16;;;;;;;18.73;12.35;;;;;;;16.44;66.63;100080.62;1986816;89;28718;-58
2021/06/29 03:00:20;;;;;;;41.77;30.72;;;;;;;16.46;66.67;100075.11;1993256;87;31015;-57
2021/06/29 03:03:22;;;;;;;42.95;30.32;;;;;;;16.49;66.69;100081.61;2011515;88;33855;-57
2021/06/29 03:06:24;;;;;;;17.92;14.13;;;;;;;16.51;66.85;100072.41;2019986;87;29689;-58
2021/06/29 03:09:25;;;;;;;16.90;12.90;;;;;;;16.54;66.83;100080.29;2011678;88;27547;-57
2021/06/29 03:12:27;;;;;;;15.18;12.58;;;;;;;16.55;66.81;100084.69;2011436;88;28918;-58
2021/06/29 03:15:29;;;;;;;15.05;11.55;;;;;;;16.57;66.85;100077.83;2012872;87;31173;-57
2021/06/29 03:18:31;;;;;;;16.12;12.15;;;;;;;16.60;66.90;100083.00;2036940;86;33174;-58
2021/06/29 03:21:33;;;;;;;14.78;12.07;;;;;;;16.67;66.88;100080.16;2050504;86;29602;-57
2021/06/29 03:24:34;;;;;;;14.65;12.03;;;;;;;16.72;66.86;100081.14;2062436;86;27496;-57
2021/06/29 03:27:37;;;;;;;16.15;12.10;;;;;;;16.77;66.75;100083.00;2059368;86;28884;-58
2021/06/29 03:30:39;;;;;;;12.98;11.68;;;;;;;16.83;66.83;100084.36;2061855;86;31053;-58
2021/06/29 03:33:41;;;;;;;15.25;12.33;;;;;;;16.91;66.88;100083.74;2062335;86;33007;-58
2021/06/29 03:36:42;;;;;;;15.35;12.65;;;;;;;16.94;66.75;100081.67;2062361;86;30570;-58
2021/06/29 03:39:44;;;;;;;26.42;13.00;;;;;;;17.00;66.77;100085.77;2026195;86;27658;-58
2021/06/29 03:42:47;;;;;;;16.05;12.60;;;;;;;17.05;66.80;100077.27;2019391;88;29550;-58
2021/06/29 03:45:48;;;;;;;16.32;12.10;;;;;;;17.09;66.89;100069.27;2017780;86;31260;-58
2021/06/29 03:48:50;;;;;;;18.90;13.20;;;;;;;17.13;66.74;100065.31;2013949;88;32936;-59
2021/06/29 03:51:53;;;;;;;23.98;18.25;;;;;;;17.20;66.64;100065.19;2013976;88;29637;-58
2021/06/29 03:54:55;;;;;;;19.37;14.30;;;;;;;17.22;66.29;100051.05;2018232;86;27567;-58
2021/06/29 03:57:57;;;;;;;15.95;14.07;;;;;;;17.22;66.29;100051.05;2019526;87;28699;-58
2021/06/29 04:00:59;;;;;;;19.20;14.50;;;;;;;17.46;66.41;100074.36;2019382;87;31103;-58
2021/06/29 04:04:01;;;;;;;22.27;14.75;;;;;;;17.52;66.28;100067.61;2019340;87;33032;-58
2021/06/29 04:07:06;;;;;;;19.10;14.40;;;;;;;17.59;66.28;100070.16;2053425;86;29680;-58
2021/06/29 04:10:08;;;;;;;18.15;13.83;;;;;;;17.58;66.18;100054.89;2024321;85;27545;-58
2021/06/29 04:13:10;;;;;;;17.12;13.50;;;;;;;17.67;66.12;100060.03;2019384;88;28632;-58
2021/06/29 04:16:12;;;;;;;22.60;14.05;;;;;;;17.85;66.12;100078.82;2021725;86;31131;-58
2021/06/29 04:19:14;;;;;;;17.82;13.38;;;;;;;17.83;66.14;100068.60;2022963;87;33167;-58
2021/06/29 04:22:16;;;;;;;16.80;12.80;;;;;;;18.06;65.96;100087.52;2025097;87;30568;-59
2021/06/29 04:25:17;;;;;;;12.47;11.18;;;;;;;18.20;65.82;100100.77;2029821;86;27608;-69
2021/06/29 04:28:19;;;;;;;19.10;13.75;;;;;;;18.34;65.81;100097.36;2027989;87;28857;-69
2021/06/29 04:31:21;;;;;;;23.77;13.88;;;;;;;18.48;65.54;100097.54;2031133;86;31003;-68
2021/06/29 04:34:23;;;;;;;21.85;15.75;;;;;;;18.65;65.33;100096.94;2068272;86;33165;-69
2021/06/29 04:37:25;;;;;;;20.30;13.32;;;;;;;18.83;65.34;100099.03;2068299;86;29699;-69
2021/06/29 04:40:27;;;;;;;21.70;14.45;;;;;;;19.02;65.05;100096.94;2068388;86;27631;-68
2021/06/29 04:43:29;;;;;;;24.02;14.23;;;;;;;19.24;64.88;100087.72;2063376;86;29524;-69
2021/06/29 04:46:31;;;;;;;18.40;13.53;;;;;;;19.47;64.53;100080.72;2068253;86;31989;-68
2021/06/29 04:49:33;;;;;;;24.02;13.88;;;;;;;19.79;64.53;100077.39;2064138;86;33874;-69
2021/06/29 04:52:35;;;;;;;24.65;14.03;;;;;;;20.68;64.69;100066.84;2044002;86;29616;-68
2021/06/29 04:55:36;;;;;;;25.23;13.22;;;;;;;21.82;63.18;100072.53;2065754;86;27599;-68
2021/06/29 04:58:38;;;;;;;16.48;12.47;;;;;;;23.02;62.06;100076.18;2068317;86;28611;-68
2021/06/29 05:01:40;;;;;;;15.28;13.10;;;;;;;24.14;60.78;100077.06;2067785;86;31805;-68
2021/06/29 05:04:42;;;;;;;17.50;12.55;;;;;;;25.23;59.28;100071.23;2063803;86;33803;-69
2021/06/29 05:07:45;;;;;;;15.03;12.73;;;;;;;26.32;57.32;100071.26;2068288;86;29638;-68
2021/06/29 05:10:47;;;;;;;17.42;12.85;;;;;;;27.36;56.02;100078.42;2068525;86;27591;-69
2021/06/29 05:13:49;;;;;;;13.80;12.40;;;;;;;28.05;53.69;100073.81;2066276;86;29422;-69
2021/06/29 05:16:50;;;;;;;16.73;12.50;;;;;;;28.77;51.46;100066.93;2026139;86;30995;-69
2021/06/29 05:19:52;;;;;;;17.17;12.73;;;;;;;29.41;51.57;100068.27;2024753;88;33089;-69
2021/06/29 05:22:55;;;;;;;14.90;12.70;;;;;;;30.14;50.17;100064.84;2025029;88;30479;-69
2021/06/29 05:25:56;;;;;;;13.83;11.93;;;;;;;30.83;48.68;100064.63;2056725;86;27638;-66
2021/06/29 05:28:58;;;;;;;18.80;12.55;;;;;;;31.62;48.11;100059.57;2068295;86;28629;-66
2021/06/29 05:32:00;;;;;;;14.38;12.88;;;;;;;32.43;46.74;100055.76;2065666;86;31170;-66
2021/06/29 05:35:04;;;;;;;16.42;13.03;;;;;;;33.08;44.63;100054.48;2068238;86;33702;-68
2021/06/29 05:38:07;;;;;;;19.25;13.03;;;;;;;33.48;43.03;100041.49;2068399;86;30522;-68
2021/06/29 05:41:09;;;;;;;16.10;13.50;;;;;;;33.85;41.83;100043.86;2039779;86;27796;-67
2021/06/29 05:44:11;;;;;;;14.33;12.58;;;;;;;34.12;40.46;100040.16;2027949;87;28782;-67
2021/06/29 05:47:19;;;;;;;16.90;12.28;;;;;;;34.38;40.16;100038.00;2029863;86;31073;-67
2021/06/29 05:50:17;;;;;;;;;;;;;;;34.73;38.79;100032.17;2026768;88;33617;-67
2021/06/29 05:53:20;;;;;;;15.88;11.97;;;;;;;34.91;38.01;100032.03;2025212;88;29767;-67
2021/06/29 05:56:23;;;;;;;16.65;12.20;;;;;;;35.08;37.07;100029.91;2043369;86;27591;-68
2021/06/29 05:59:25;;;;;;;15.00;11.80;;;;;;;35.24;36.85;100032.45;2043425;86;28648;-69
2021/06/29 06:02:26;;;;;;;17.73;11.88;;;;;;;35.56;35.08;100024.50;2027758;86;31007;-67
2021/06/29 06:05:29;;;;;;;17.40;11.57;;;;;;;35.59;35.65;100014.78;2025141;87;33724;-69
2021/06/29 06:08:31;;;;;;;14.87;11.40;;;;;;;35.59;34.70;100012.00;2003209;87;29680;-67
2021/06/29 06:11:33;;;;;;;13.83;11.45;;;;;;;35.66;33.88;100010.45;2030348;86;27468;-67
2021/06/29 06:14:35;;;;;;;13.83;10.48;;;;;;;35.72;34.52;100010.29;2068440;86;28628;-68
2021/06/29 06:17:37;;;;;;;18.50;10.68;;;;;;;35.95;33.91;100007.11;2068395;86;30574;-60
2021/06/29 06:20:39;;;;;;;15.85;11.00;;;;;;;36.07;33.54;100016.79;2059796;86;33046;-59
2021/06/29 06:23:41;;;;;;;25.95;21.55;;;;;;;36.31;33.77;100024.97;2062508;86;29760;-59
2021/06/29 06:26:43;;;;;;;14.53;10.65;;;;;;;36.39;32.06;100030.14;2056668;86;27519;-59
2021/06/29 06:29:45;;;;;;;15.15;9.63;;;;;;;36.30;31.75;100031.64;2019581;88;29780;-59
2021/06/29 06:32:47;;;;;;;21.20;10.65;;;;;;;36.32;31.26;100030.84;2019542;88;31003;-60
2021/06/29 06:35:50;;;;;;;16.35;11.30;;;;;;;36.14;31.34;100029.17;2019243;87;33094;-59
2021/06/29 06:38:52;;;;;;;13.32;11.00;;;;;;;35.92;30.77;100024.30;2021925;86;29708;-59
2021/06/29 06:41:54;;;;;;;12.63;9.43;;;;;;;35.67;31.50;100027.47;2019546;87;28040;-59
2021/06/29 06:44:57;;;;;;;15.40;10.05;;;;;;;35.58;31.10;100028.42;2019431;87;28690;-59
2021/06/29 06:47:58;;;;;;;18.97;9.57;;;;;;;35.30;31.28;100027.30;2019674;88;31248;-59
2021/06/29 06:51:00;;;;;;;14.40;10.28;;;;;;;35.25;31.22;100030.80;2017608;86;33014;-60
2021/06/29 06:54:09;;;;;;;17.87;11.30;;;;;;;35.08;31.61;100037.70;2014040;88;29703;-59
2021/06/29 06:57:19;;;;;;;17.60;9.70;;;;;;;35.45;31.84;100037.91;2014369;88;27586;-60
2021/06/29 07:00:24;;;;;;;13.10;10.00;;;;;;;35.73;31.39;100040.41;2019300;86;29516;-59
2021/06/29 07:03:25;;;;;;;13.55;9.85;;;;;;;35.84;31.56;100050.65;2061860;86;30523;-59
2021/06/29 07:06:27;;;;;;;12.58;9.88;;;;;;;36.04;31.64;100050.75;2029372;86;33005;-59
2021/06/29 07:09:29;;;;;;;11.57;8.95;;;;;;;36.36;31.65;100052.95;2019447;87;29854;-60
2021/06/29 07:12:31;;;;;;;14.13;10.93;;;;;;;36.74;31.58;100049.09;2019538;87;27510;-59
2021/06/29 07:15:33;;;;;;;15.58;10.63;;;;;;;36.96;31.41;100048.31;2021880;86;28887;-59
2021/06/29 07:18:35;;;;;;;13.50;9.70;;;;;;;37.15;31.03;100041.84;2020141;87;31856;-60
2021/06/29 07:21:37;;;;;;;13.05;10.35;;;;;;;37.37;30.95;100039.89;2024862;88;33821;-60
2021/06/29 07:24:39;;;;;;;11.38;10.18;;;;;;;37.52;30.80;100038.41;2025112;87;29362;-59
2021/06/29 07:27:41;;;;;;;13.35;10.10;;;;;;;37.44;30.12;100030.48;2027786;86;27757;-59
2021/06/29 07:30:43;;;;;;;13.40;9.70;;;;;;;36.98;29.50;100026.56;2025380;87;28738;-59
2021/06/29 07:33:46;;;;;;;15.10;10.08;;;;;;;36.71;30.44;100023.08;2025227;87;31805;-62
2021/06/29 07:36:48;;;;;;;17.17;9.58;;;;;;;36.68;29.87;100018.87;2047989;86;33034;-60
2021/06/29 07:39:49;;;;;;;10.65;9.28;;;;;;;36.64;30.28;100013.50;2068341;86;29704;-59
2021/06/29 07:42:51;;;;;;;14.70;8.98;;;;;;;36.70;30.12;100015.27;2065994;86;27504;-60
2021/06/29 07:45:53;;;;;;;16.77;9.28;;;;;;;36.63;29.75;100009.87;2068315;86;28690;-60
2021/06/29 07:48:55;;;;;;;13.18;9.05;;;;;;;36.61;30.39;100005.63;2068466;86;31078;-60
2021/06/29 07:51:57;;;;;;;9.40;8.48;;;;;;;36.74;29.76;100005.82;2068325;86;33850;-59
2021/06/29 07:54:59;;;;;;;9.78;7.72;;;;;;;36.80;29.51;100012.61;2027529;86;30456;-59
2021/06/29 07:58:01;;;;;;;9.38;8.35;;;;;;;36.59;29.27;100010.09;2025323;87;27510;-59
2021/06/29 08:01:03;;;;;;;7.55;6.80;;;;;;;36.41;28.83;100018.70;2024968;88;28713;-59
2021/06/29 08:04:05;;;;;;;9.93;7.05;;;;;;;36.27;28.50;100016.27;2027517;86;31144;-59
2021/06/29 08:07:07;;;;;;;10.68;7.30;;;;;;;36.11;28.60;100021.30;2025093;87;34111;-59
2021/06/29 08:10:10;;;;;;;9.98;7.15;;;;;;;36.03;28.36;100020.61;2025207;87;29614;-60
2021/06/29 08:13:12;;;;;;;7.50;6.67;;;;;;;35.96;27.95;100015.77;2025318;87;27632;-59
2021/06/29 08:16:14;;;;;;;8.28;6.85;;;;;;;36.00;27.83;100010.52;2025123;87;29612;-59
2021/06/29 08:19:17;;;;;;;8.53;7.10;;;;;;;36.31;28.30;100006.30;2022635;86;32031;-59
2021/06/29 08:22:19;;;;;;;7.63;6.93;;;;;;;36.79;27.65;99998.36;1999824;89;33078;-60
2021/06/29 08:25:21;;;;;;;8.30;6.15;;;;;;;36.89;27.71;100000.44;1999567;88;29776;-58
2021/06/29 08:28:24;;;;;;;8.07;6.43;;;;;;;37.01;27.48;99998.95;2050700;86;27569;-57
2021/06/29 08:31:25;;;;;;;8.65;6.20;;;;;;;37.31;27.49;100003.21;2068143;86;28686;-60
2021/06/29 08:34:27;;;;;;;7.67;5.90;;;;;;;37.58;26.65;100006.59;2046545;86;31243;-59
2021/06/29 08:37:29;;;;;;;5.65;5.12;;;;;;;37.72;25.98;99994.44;2067760;86;33901;-59
2021/06/29 08:40:31;;;;;;;7.15;5.92;;;;;;;37.55;25.80;99997.36;2049611;86;30644;-59
2021/06/29 08:43:33;;;;;;;9.23;6.60;;;;;;;37.19;25.44;99994.14;2068130;86;27577;-59
2021/06/29 08:46:35;;;;;;;10.68;5.78;;;;;;;36.87;25.66;99988.69;2046590;86;29434;-60
2021/06/29 08:49:38;;;;;;;6.42;5.92;;;;;;;36.59;25.35;99994.73;2068354;86;31874;-59
2021/06/29 08:52:40;;;;;;;6.72;5.80;;;;;;;35.98;26.05;99994.59;2046033;86;32951;-59
2021/06/29 08:55:47;;;;;;;7.72;6.30;;;;;;;35.75;26.21;99995.00;2067864;86;29745;-59
2021/06/29 08:58:49;;;;;;;7.20;6.50;;;;;;;35.46;27.00;99996.42;2049691;86;27520;-58
2021/06/29 09:01:52;;;;;;;6.55;5.87;;;;;;;35.30;26.56;99992.48;2065832;86;29482;-60
2021/06/29 09:04:58;;;;;;;7.60;5.70;;;;;;;35.08;27.28;99988.98;2049546;86;31071;-58
2021/06/29 09:08:09;;;;;;;6.72;5.20;;;;;;;34.88;26.92;99978.24;2067981;86;33046;-57
2021/06/29 09:11:17;;;;;;;6.80;4.75;;;;;;;34.57;26.86;99972.53;2006072;86;29755;-60
2021/06/29 09:14:20;;;;;;;9.03;4.97;;;;;;;34.16;26.53;99968.23;2028313;87;27565;-59
2021/06/29 09:17:22;;;;;;;18.87;4.87;;;;;;;33.92;26.54;99962.67;2004065;87;28747;-59
2021/06/29 09:20:34;;;;;;;6.62;5.05;;;;;;;33.80;26.41;99957.05;2023089;86;31082;-59
2021/06/29 09:23:39;;;;;;;6.10;5.50;;;;;;;33.56;27.02;99963.93;2013300;88;33899;-58
2021/06/29 09:26:42;;;;;;;6.25;5.62;;;;;;;33.30;27.05;99958.19;2013090;88;29714;-58
2021/06/29 09:29:44;;;;;;;5.67;5.17;;;;;;;32.99;27.50;99947.62;2058650;86;27553;-58
2021/06/29 09:32:46;;;;;;;12.25;5.03;;;;;;;32.81;28.06;99946.55;2059535;86;28646;-57
2021/06/29 09:35:52;;;;;;;9.73;5.60;;;;;;;32.81;28.53;99948.47;2059208;86;32113;-58
2021/06/29 09:38:57;;;;;;;10.98;5.33;;;;;;;32.73;28.43;99939.36;2056767;86;33016;-57
2021/06/29 09:42:04;;;;;;;6.47;4.55;;;;;;;32.52;28.23;99927.34;2047288;86;29742;-58
2021/06/29 09:45:11;;;;;;;5.83;5.05;;;;;;;32.42;27.98;99923.74;2013520;88;27606;-59
2021/06/29 09:48:15;;;;;;;9.63;5.60;;;;;;;32.19;28.08;99926.60;2014334;86;29741;-58
2021/06/29 09:51:23;;;;;;;12.40;5.72;;;;;;;32.23;28.70;99920.05;2026013;86;47046;-57
2021/06/29 09:54:30;;;;;;;5.35;4.58;;;;;;;32.33;29.32;99916.79;2059784;86;33065;-58
2021/06/29 09:57:32;;;;;;;5.35;4.70;;;;;;;32.30;28.54;99913.95;2054617;86;29789;-57
2021/06/29 10:00:47;;;;;;;8.05;5.40;;;;;;;32.29;28.70;99906.70;2059791;86;27575;-58
2021/06/29 10:03:51;;;;;;;8.63;4.75;;;;;;;32.27;28.82;99888.90;2059711;86;29405;-58
2021/06/29 10:06:53;;;;;;;5.15;4.15;;;;;;;32.19;28.45;99894.73;2058643;86;31068;-57
2021/06/29 10:10:16;;;;;;;5.00;4.50;;;;;;;32.11;28.00;99880.63;2059643;86;33571;-57
2021/06/29 10:13:19;;;;;;;6.55;5.90;;;;;;;31.92;28.61;99878.90;2057044;86;29686;-60
2021/06/29 10:16:25;;;;;;;7.17;5.67;;;;;;;31.91;28.49;99886.91;2029906;86;27663;-58
2021/06/29 10:22:32;;;;;;;5.00;4.60;;;;;;;31.71;28.93;99877.39;2019705;87;30554;-58
2021/06/29 10:25:35;;;;;;;5.03;4.53;;;;;;;31.62;28.82;99875.41;2019647;87;32905;-58
2021/06/29 10:28:38;;;;;;;6.57;5.40;;;;;;;31.53;29.09;99876.23;2049072;86;29749;-58
2021/06/29 10:31:44;;;;;;;4.60;4.17;;;;;;;31.44;28.85;99880.36;2062764;86;27710;-57
2021/06/29 10:34:47;;;;;;;6.12;3.80;;;;;;;31.39;28.59;99879.63;2051689;86;28744;-58
2021/06/29 10:37:49;;;;;;;8.20;3.92;;;;;;;31.41;28.77;99886.34;2051192;86;31154;-58
2021/06/29 10:40:53;;;;;;;7.12;4.03;;;;;;;31.32;28.31;99892.69;2052044;86;33690;-57
2021/06/29 10:43:55;;;;;;;4.75;4.35;;;;;;;31.29;28.49;99886.20;2051637;86;30470;-58
2021/06/29 10:46:57;;;;;;;4.60;4.20;;;;;;;31.18;28.65;99885.00;2051450;86;27726;-57
2021/06/29 10:50:07;;;;;;;5.50;4.05;;;;;;;31.06;28.92;99880.14;2051375;86;28564;-58
2021/06/29 10:53:33;;;;;;;5.92;3.67;;;;;;;31.06;28.95;99887.58;2051975;86;31926;-57
2021/06/29 10:56:57;;;;;;;4.50;3.55;;;;;;;30.96;28.65;99888.06;2050996;86;34016;-57
2021/06/29 10:59:59;;;;;;;6.80;3.98;;;;;;;30.85;29.16;99885.48;2058773;86;30754;-57
2021/06/29 11:03:10;;;;;;;5.97;3.58;;;;;;;30.81;29.22;99874.54;1984682;89;27550;-58
2021/06/29 11:06:15;;;;;;;4.03;3.52;;;;;;;30.86;29.17;99870.55;1984790;89;28585;-59
2021/06/29 11:09:21;;;;;;;3.65;3.35;;;;;;;30.93;29.30;99876.08;1982420;89;31774;-58
2021/06/29 11:12:29;;;;;;;4.05;3.30;;;;;;;30.93;29.13;99871.93;1984736;89;32955;-57
2021/06/29 11:15:51;;;;;;;4.60;3.27;;;;;;;30.90;28.34;99866.83;1994164;86;29775;-58
2021/06/29 11:18:54;;;;;;;3.47;3.05;;;;;;;30.83;27.95;99867.39;2017181;87;27533;-58
2021/06/29 11:21:56;;;;;;;6.37;3.08;;;;;;;30.81;28.43;99873.67;2018492;88;28722;-59
2021/06/29 11:25:05;;;;;;;3.42;3.12;;;;;;;30.81;28.26;99863.47;2039383;86;32255;-59
2021/06/29 11:28:18;;;;;;;3.17;2.95;;;;;;;30.95;28.28;99862.84;2059322;86;33019;-58
2021/06/29 11:31:26;;;;;;;3.25;3.02;;;;;;;31.03;28.19;99850.15;2059769;86;29780;-58
2021/06/29 11:34:28;;;;;;;4.00;3.30;;;;;;;31.17;28.33;99835.73;2060569;86;27560;-58
2021/06/29 11:37:55;;;;;;;4.30;3.25;;;;;;;31.30;27.84;99838.91;2059651;86;28742;-59
2021/06/29 11:40:56;;;;;;;4.00;3.55;;;;;;;31.40;27.54;99836.20;2057963;86;31925;-61
2021/06/29 11:44:09;;;;;;;4.58;3.55;;;;;;;31.43;27.30;99829.66;2001206;86;33045;-61
2021/06/29 11:47:16;;;;;;;9.80;5.87;;;;;;;31.47;27.39;99833.69;2007070;88;29667;-60
2021/06/29 11:50:19;;;;;;;4.00;3.20;;;;;;;31.60;27.94;99828.58;2020316;86;27712;-58
2021/06/29 11:53:23;;;;;;;5.57;3.53;;;;;;;31.61;28.45;99828.86;2068291;86;28753;-62
2021/06/29 11:56:31;;;;;;;4.55;3.30;;;;;;;31.73;27.96;99827.61;2049723;86;32183;-64
2021/06/29 11:59:32;;;;;;;5.42;3.20;;;;;;;31.74;27.94;99822.39;2067998;86;33012;-59
2021/06/29 12:02:35;;;;;;;4.15;3.50;;;;;;;31.75;27.77;99815.77;1996243;86;29696;-62
2021/06/29 12:05:37;;;;;;;6.12;3.30;;;;;;;31.78;28.34;99813.94;2018851;88;27598;-59
2021/06/29 12:08:39;;;;;;;3.40;3.10;;;;;;;31.91;28.20;99814.34;2048485;86;28753;-61
2021/06/29 12:11:41;;;;;;;3.75;3.40;;;;;;;32.05;28.03;99809.48;2060237;86;31086;-59
2021/06/29 12:14:43;;;;;;;3.40;3.05;;;;;;;32.15;27.26;99813.11;2059655;86;32983;-61
2021/06/29 12:17:56;;;;;;;4.95;3.27;;;;;;;32.17;26.63;99799.88;2060118;86;30259;-67
2021/06/29 12:21:05;;;;;;;2.85;2.55;;;;;;;32.19;26.67;99796.33;2059952;86;27738;-64
2021/06/29 12:24:13;;;;;;;2.90;2.70;;;;;;;32.35;26.34;99792.66;2059676;86;28650;-58
2021/06/29 12:27:18;;;;;;;3.90;3.25;;;;;;;32.38;25.89;99780.55;2059808;86;31157;-61
2021/06/29 12:30:27;;;;;;;3.80;3.27;;;;;;;32.47;25.20;99774.14;2059561;86;33070;-61
2021/06/29 12:33:39;;;;;;;4.05;3.30;;;;;;;32.37;25.55;99770.53;2059334;86;30440;-67
2021/06/29 12:36:41;;;;;;;5.65;3.30;;;;;;;32.36;25.79;99770.78;2058552;86;27601;-68
2021/06/29 12:39:43;;;;;;;4.12;3.67;;;;;;;32.41;25.87;99761.23;2059573;86;28795;-62
2021/06/29 12:42:45;;;;;;;4.05;3.72;;;;;;;32.41;25.54;99761.23;2059508;86;32103;-65
2021/06/29 12:45:47;;;;;;;6.75;5.30;;;;;;;32.40;25.68;99760.93;2059480;86;33842;-61
2021/06/29 12:49:05;;;;;;;6.33;3.22;;;;;;;32.37;26.06;99751.13;2059565;86;30449;-62
2021/06/29 12:52:12;;;;;;;3.52;2.70;;;;;;;32.30;26.00;99754.55;2053658;86;27572;-62
2021/06/29 12:55:14;;;;;;;3.27;2.98;;;;;;;32.19;25.54;99736.74;2035088;86;28701;-68
2021/06/29 12:58:16;;;;;;;4.45;3.08;;;;;;;32.10;25.50;99746.47;2042250;86;32010;-65
2021/06/29 13:01:20;;;;;;;5.03;2.60;;;;;;;31.90;25.32;99742.01;2033828;86;33098;-61
2021/06/29 13:04:25;;;;;;;6.03;3.60;;;;;;;31.75;25.79;99729.08;2059668;86;29623;-61
2021/06/29 13:07:35;;;;;;;4.47;3.47;;;;;;;31.66;26.06;99718.27;2059717;86;27584;-63
2021/06/29 13:10:37;;;;;;;5.55;3.02;;;;;;;31.53;26.03;99722.56;2059768;86;28782;-65
2021/06/29 13:13:41;;;;;;;5.67;3.15;;;;;;;31.37;26.19;99722.08;2036511;87;31179;-60
2021/06/29 13:16:43;;;;;;;4.17;3.47;;;;;;;31.23;26.34;99709.45;2027769;87;33860;-60
2021/06/29 13:19:44;;;;;;;4.75;3.33;;;;;;;31.19;26.46;99714.57;2033049;87;29884;-65
2021/06/29 13:22:58;;;;;;;3.62;3.05;;;;;;;31.14;26.74;99716.33;2041726;86;27496;-65
2021/06/29 13:26:08;;;;;;;3.83;3.52;;;;;;;31.16;26.94;99699.83;2056470;86;28799;-64
2021/06/29 13:29:10;;;;;;;4.10;3.70;;;;;;;31.14;26.83;99699.73;1993034;87;31136;-72
2021/06/29 13:32:21;;;;;;;5.75;4.03;;;;;;;31.11;26.68;99699.62;1990981;89;33241;-66
2021/06/29 13:35:23;;;;;;;4.58;3.20;;;;;;;31.04;26.83;99690.52;1996160;87;29698;-62
2021/06/29 13:38:25;;;;;;;3.20;2.90;;;;;;;31.01;27.09;99678.00;2036988;87;27627;-60
2021/06/29 13:41:41;;;;;;;6.12;2.87;;;;;;;30.99;27.18;99675.99;2050598;86;29439;-63
2021/06/29 13:45:00;;;;;;;3.05;2.77;;;;;;;30.94;27.15;99673.08;1980479;89;31009;-60
2021/06/29 13:48:02;;;;;;;3.05;2.80;;;;;;;30.89;27.28;99665.44;2014458;88;33830;-61
2021/06/29 13:51:24;;;;;;;4.92;3.45;;;;;;;30.87;27.78;99661.21;2011353;88;30517;-59
2021/06/29 13:54:25;;;;;;;4.80;3.20;;;;;;;30.84;27.81;99651.98;2016634;87;27524;-60
2021/06/29 13:57:27;;;;;;;4.03;3.10;;;;;;;30.80;28.03;99653.50;2056513;86;28715;-62
2021/06/29 14:00:31;;;;;;;5.10;3.92;;;;;;;30.73;28.35;99647.50;2038355;86;31009;-63
2021/06/29 14:03:34;;;;;;;5.62;3.47;;;;;;;30.64;28.66;99652.16;2056571;86;33085;-60
2021/06/29 14:06:36;;;;;;;4.27;3.83;;;;;;;30.51;28.59;99646.14;2038458;87;30488;-59
2021/06/29 14:09:39;;;;;;;5.55;3.50;;;;;;;30.48;28.75;99623.95;2030011;86;27533;-61
2021/06/29 14:12:41;;;;;;;5.23;3.63;;;;;;;30.49;29.10;99627.03;2011477;88;28781;-60
2021/06/29 14:15:43;;;;;;;5.87;3.58;;;;;;;30.55;29.33;99633.61;1996598;87;31092;-61
2021/06/29 14:18:45;;;;;;;7.05;3.22;;;;;;;30.56;29.13;99609.88;1980554;89;33789;-61
2021/06/29 14:21:47;;;;;;;4.10;2.70;;;;;;;30.50;29.25;99625.10;1994154;88;29736;-60
2021/06/29 14:24:48;;;;;;;5.05;4.40;;;;;;;30.44;29.52;99619.94;1999299;86;28098;-71
2021/06/29 14:27:51;;;;;;;4.90;4.40;;;;;;;30.41;30.01;99618.48;1960951;90;28817;-64
2021/06/29 14:30:53;;;;;;;5.50;4.58;;;;;;;30.38;30.12;99620.30;1987406;86;31153;-63
2021/06/29 14:33:55;;;;;;;4.80;4.35;;;;;;;30.39;30.29;99614.23;2055004;86;33134;-70
2021/06/29 14:36:57;;;;;;;12.68;4.83;;;;;;;30.47;30.47;99607.89;2049846;86;30825;-71
2021/06/29 14:39:59;;;;;;;5.92;4.70;;;;;;;30.57;30.57;99609.35;2059675;85;27539;-66